Terminal Aerodrome Forecast
Issued by NWS Sioux Falls, SD

Home | Current Version | Previous Version | Text Only | Print | Product List | Glossary Off
Versions: 1 2 3 4 5 6 7 8 9 10 11 12 13 14 15 16

000
FTUS43 KFSD 221740
TAFHON
TAF
KHON 221740Z 2218/2318 11008KT P6SM SCT025 BKN250
     FM230100 12010KT P6SM SCT050 SCT150
     FM231600 16011KT P6SM BKN250=

USA.gov is the U.S. government's official web portal to all federal, state and local government web resources and services.